Time,TemperatureF,DewpointF,PressureIn,WindDirection,WindDirectionDegrees,WindSpeedMPH,WindSpeedGustMPH,Humidity,HourlyPrecipIn,Conditions,Clouds,dailyrainin,SoftwareType,DateUTC
2013-02-09 00:00:00,31.0,30.2,29.76,NW,315,0.0,0.0,97,0.00,,---,0.00,VWS V14.01,2013-02-09 05:00:00,
2013-02-09 00:15:00,31.0,30.2,29.77,NW,315,0.0,0.0,97,0.00,,---,0.00,VWS V14.01,2013-02-09 05:15:00,
2013-02-09 00:30:00,31.0,30.2,29.77,NW,315,0.0,0.0,97,0.00,,---,0.00,VWS V14.01,2013-02-09 05:30:00,
2013-02-09 00:45:00,31.0,30.2,29.77,NW,315,0.0,0.0,97,0.00,,---,0.00,VWS V14.01,2013-02-09 05:45:00,
2013-02-09 01:00:00,31.0,30.2,29.77,NW,315,0.0,0.0,97,0.00,,---,0.00,VWS V14.01,2013-02-09 06:00:00,
2013-02-09 01:15:00,31.2,30.5,29.78,NW,315,0.0,0.0,97,0.00,,---,0.00,VWS V14.01,2013-02-09 06:15:00,
2013-02-09 01:30:00,31.5,30.8,29.78,NW,315,0.0,0.0,97,0.00,,---,0.00,VWS V14.01,2013-02-09 06:30:00,
2013-02-09 01:45:00,31.6,30.9,29.79,NW,315,0.0,0.0,97,0.00,,---,0.00,VWS V14.01,2013-02-09 06:45:00,
2013-02-09 02:00:00,31.6,30.9,29.79,NW,315,0.0,0.0,97,0.00,,---,0.00,VWS V14.01,2013-02-09 07:00:00,
2013-02-09 02:15:00,31.8,31.3,29.79,NW,315,0.0,0.0,98,0.00,,---,0.00,VWS V14.01,2013-02-09 07:15:00,
2013-02-09 02:30:00,31.8,31.3,29.80,NW,315,0.0,0.0,98,0.00,,---,0.00,VWS V14.01,2013-02-09 07:30:00,
2013-02-09 02:45:00,31.9,31.4,29.80,NW,315,0.0,0.0,98,0.00,,---,0.00,VWS V14.01,2013-02-09 07:45:00,
2013-02-09 03:00:00,31.0,30.2,29.82,WNW,292,1.0,9.0,97,0.00,,---,0.00,VWS V14.01,2013-02-09 08:00:00,
2013-02-09 03:15:00,28.4,27.4,29.83,WNW,292,2.0,9.0,96,0.00,,---,0.00,VWS V14.01,2013-02-09 08:15:00,
2013-02-09 03:30:00,27.6,26.6,29.84,WNW,292,2.0,7.0,96,0.00,,---,0.00,VWS V14.01,2013-02-09 08:30:00,
2013-02-09 03:45:00,26.7,25.7,29.85,West,270,3.0,9.0,96,0.00,,---,0.00,VWS V14.01,2013-02-09 08:45:00,
2013-02-09 04:00:00,26.1,25.1,29.86,West,270,2.0,9.0,96,0.00,,---,0.00,VWS V14.01,2013-02-09 09:00:00,
2013-02-09 04:15:00,25.7,24.5,29.86,WNW,292,3.0,9.0,95,0.00,,---,0.00,VWS V14.01,2013-02-09 09:15:00,
2013-02-09 04:30:00,25.4,23.9,29.87,West,270,3.0,10.0,94,0.00,,---,0.00,VWS V14.01,2013-02-09 09:30:00,
2013-02-09 04:45:00,25.3,23.8,29.88,WNW,292,3.0,12.0,94,0.00,,---,0.00,VWS V14.01,2013-02-09 09:45:00,
2013-02-09 05:00:00,25.1,23.4,29.88,WNW,292,3.0,7.0,93,0.00,,---,0.00,VWS V14.01,2013-02-09 10:00:00,
2013-02-09 05:15:00,25.0,23.0,29.89,West,270,3.0,9.0,92,0.00,,---,0.00,VWS V14.01,2013-02-09 10:15:00,
2013-02-09 05:30:00,25.0,22.8,29.90,WNW,292,3.0,8.0,91,0.00,,---,0.00,VWS V14.01,2013-02-09 10:30:00,
2013-02-09 05:45:00,25.0,22.5,29.91,West,270,3.0,6.0,90,0.00,,---,0.00,VWS V14.01,2013-02-09 10:45:00,
2013-02-09 06:00:00,25.0,22.2,29.91,WNW,292,2.0,6.0,89,0.00,,---,0.00,VWS V14.01,2013-02-09 11:00:00,
2013-02-09 06:30:00,25.0,21.4,29.92,West,271,3.0,5.0,86,0.00,,---,0.00,VWS V14.01,2013-02-09 11:30:00,
2013-02-09 06:34:00,25.0,21.4,29.92,West,273,2.0,11.0,86,0.00,,---,0.00,VWS V14.01,2013-02-09 11:34:00,
2013-02-09 06:38:00,24.8,21.2,29.92,NW,321,0.0,11.0,86,0.00,,---,0.00,VWS V14.01,2013-02-09 11:38:00,
2013-02-09 06:40:00,24.7,20.8,29.92,WNW,292,4.0,11.0,85,0.00,,---,0.00,VWS V14.01,2013-02-09 11:40:00,
2013-02-09 06:42:00,24.7,20.8,29.92,WNW,288,4.0,11.0,85,0.00,,---,0.00,VWS V14.01,2013-02-09 11:42:00,
2013-02-09 06:44:00,24.7,20.8,29.92,WSW,238,11.0,12.0,85,0.00,,---,0.00,VWS V14.01,2013-02-09 11:44:00,
2013-02-09 06:45:00,24.7,20.8,29.92,West,259,8.0,12.0,85,0.00,,---,0.00,VWS V14.01,2013-02-09 11:45:00,
2013-02-09 06:48:00,24.7,20.6,29.93,WNW,284,5.0,12.0,84,0.00,,---,0.00,VWS V14.01,2013-02-09 11:48:00,
2013-02-09 06:54:00,24.7,20.6,29.93,West,273,9.0,15.0,84,0.00,,---,0.00,VWS V14.01,2013-02-09 11:54:00,
2013-02-09 06:56:00,24.7,20.3,29.93,WNW,288,7.0,15.0,83,0.00,,---,0.00,VWS V14.01,2013-02-09 11:56:00,
2013-02-09 07:00:00,24.7,20.0,29.94,WNW,300,3.0,15.0,82,0.00,,---,0.00,VWS V14.01,2013-02-09 12:00:00,
2013-02-09 07:06:00,24.7,19.7,29.93,WSW,250,5.0,12.0,81,0.00,,---,0.00,VWS V14.01,2013-02-09 12:06:00,
2013-02-09 07:08:00,24.7,19.7,29.94,West,263,4.0,12.0,81,0.00,,---,0.00,VWS V14.01,2013-02-09 12:08:00,
2013-02-09 07:10:00,24.7,19.4,29.94,NW,306,4.0,12.0,80,0.00,,---,0.00,VWS V14.01,2013-02-09 12:10:00,
2013-02-09 07:14:00,24.7,19.1,29.94,WSW,249,5.0,12.0,79,0.00,,---,0.00,VWS V14.01,2013-02-09 12:14:00,
2013-02-09 07:15:00,24.7,19.1,29.95,West,267,2.0,12.0,79,0.00,,---,0.00,VWS V14.01,2013-02-09 12:15:00,
2013-02-09 07:16:00,24.7,19.1,29.95,SW,236,2.0,4.0,79,0.00,,---,0.00,VWS V14.01,2013-02-09 12:16:00,
2013-02-09 07:20:00,24.5,18.9,29.95,WSW,252,4.0,7.0,79,0.00,,---,0.00,VWS V14.01,2013-02-09 12:20:00,
2013-02-09 07:22:00,24.5,18.9,29.95,WNW,299,6.0,10.0,79,0.00,,---,0.00,VWS V14.01,2013-02-09 12:22:00,
2013-02-09 07:24:00,24.5,18.6,29.95,NW,323,12.0,12.0,78,0.00,,---,0.00,VWS V14.01,2013-02-09 12:24:00,
2013-02-09 07:26:00,24.5,18.6,29.95,NNW,340,4.0,12.0,78,0.00,,---,0.00,VWS V14.01,2013-02-09 12:26:00,
2013-02-09 07:28:00,24.5,18.3,29.95,West,281,2.0,12.0,77,0.00,,---,0.00,VWS V14.01,2013-02-09 12:28:00,
2013-02-09 07:30:00,24.7,18.5,29.96,NW,304,6.0,12.0,77,0.00,,---,0.00,VWS V14.01,2013-02-09 12:30:00,
2013-02-09 07:32:00,24.7,18.5,29.96,WNW,286,3.0,9.0,77,0.00,,---,0.00,VWS V14.01,2013-02-09 12:32:00,
2013-02-09 07:36:00,24.7,17.9,29.96,SW,236,3.0,10.0,75,0.00,,---,0.00,VWS V14.01,2013-02-09 12:36:00,
2013-02-09 07:38:00,24.7,17.9,29.96,West,273,2.0,10.0,75,0.00,,---,0.00,VWS V14.01,2013-02-09 12:38:00,
2013-02-09 07:42:00,24.8,18.0,29.96,WSW,247,2.0,10.0,75,0.00,,---,0.00,VWS V14.01,2013-02-09 12:42:00,
2013-02-09 07:44:00,24.8,18.0,29.97,West,261,1.0,10.0,75,0.00,,---,0.00,VWS V14.01,2013-02-09 12:44:00,
2013-02-09 07:45:00,24.8,18.0,29.97,West,269,2.0,10.0,75,0.00,,---,0.00,VWS V14.01,2013-02-09 12:45:00,
2013-02-09 07:50:00,24.8,17.7,29.96,West,265,1.0,11.0,74,0.00,,---,0.00,VWS V14.01,2013-02-09 12:50:00,
2013-02-09 07:52:00,24.8,17.7,29.97,West,271,4.0,11.0,74,0.00,,---,0.00,VWS V14.01,2013-02-09 12:52:00,
2013-02-09 07:56:00,25.0,17.9,29.97,WNW,283,3.0,11.0,74,0.00,,---,0.00,VWS V14.01,2013-02-09 12:56:00,
2013-02-09 07:58:00,25.0,17.9,29.97,WSW,246,5.0,11.0,74,0.00,,---,0.00,VWS V14.01,2013-02-09 12:58:00,
2013-02-09 08:00:00,25.1,18.0,29.97,NNW,347,7.0,11.0,74,0.00,,---,0.00,VWS V14.01,2013-02-09 13:00:00,
2013-02-09 08:04:00,25.1,18.0,29.98,West,268,4.0,10.0,74,0.00,,---,0.00,VWS V14.01,2013-02-09 13:04:00,
2013-02-09 08:06:00,25.1,18.0,29.98,West,275,6.0,10.0,74,0.00,,---,0.00,VWS V14.01,2013-02-09 13:06:00,
2013-02-09 08:10:00,25.1,17.7,29.98,WSW,240,2.0,10.0,73,0.00,,---,0.00,VWS V14.01,2013-02-09 13:10:00,
2013-02-09 08:12:00,25.1,17.7,29.98,West,260,2.0,12.0,73,0.00,,---,0.00,VWS V14.01,2013-02-09 13:12:00,
2013-02-09 08:14:00,25.1,17.7,29.98,WNW,284,10.0,12.0,73,0.00,,---,0.00,VWS V14.01,2013-02-09 13:14:00,
2013-02-09 08:20:00,25.1,17.4,29.98,West,277,5.0,9.0,72,0.00,,---,0.00,VWS V14.01,2013-02-09 13:20:00,
2013-02-09 08:26:00,25.3,17.2,29.98,West,271,6.0,12.0,71,0.00,,---,0.00,VWS V14.01,2013-02-09 13:26:00,
2013-02-09 08:28:00,25.3,17.2,29.98,WSW,249,7.0,12.0,71,0.00,,---,0.00,VWS V14.01,2013-02-09 13:28:00,
2013-02-09 08:30:00,25.4,17.3,29.98,WSW,249,4.0,12.0,71,0.00,,---,0.00,VWS V14.01,2013-02-09 13:30:00,
2013-02-09 08:36:00,25.4,17.0,29.98,West,266,4.0,11.0,70,0.00,,---,0.00,VWS V14.01,2013-02-09 13:36:00,
2013-02-09 08:38:00,25.6,17.2,29.98,West,271,7.0,11.0,70,0.00,,---,0.00,VWS V14.01,2013-02-09 13:38:00,
2013-02-09 08:44:00,25.6,16.9,29.99,NW,309,5.0,13.0,69,0.00,,---,0.00,VWS V14.01,2013-02-09 13:44:00,
2013-02-09 08:45:00,25.6,16.9,29.99,West,263,5.0,13.0,69,0.00,,---,0.00,VWS V14.01,2013-02-09 13:45:00,
2013-02-09 08:47:00,25.6,16.9,29.98,WSW,242,8.0,13.0,69,0.00,,---,0.00,VWS V14.01,2013-02-09 13:47:00,
2013-02-09 08:51:00,25.7,17.0,29.98,WNW,298,4.0,13.0,69,0.00,,---,0.00,VWS V14.01,2013-02-09 13:51:00,
2013-02-09 08:53:00,25.7,16.6,29.98,WNW,292,8.0,15.0,68,0.00,,---,0.00,VWS V14.01,2013-02-09 13:53:00,
2013-02-09 08:55:00,25.8,16.7,29.99,WNW,284,6.0,15.0,68,0.00,,---,0.00,VWS V14.01,2013-02-09 13:55:00,
2013-02-09 08:57:00,26.0,16.9,29.98,WSW,250,6.0,15.0,68,0.00,,---,0.00,VWS V14.01,2013-02-09 13:57:00,
2013-02-09 09:00:00,26.0,16.6,29.99,NW,319,9.0,15.0,67,0.00,,---,0.00,VWS V14.01,2013-02-09 14:00:00,
2013-02-09 09:03:00,26.1,16.7,29.99,WNW,303,4.0,14.0,67,0.00,,---,0.00,VWS V14.01,2013-02-09 14:03:00,
2013-02-09 09:07:00,26.1,16.7,29.99,West,264,6.0,16.0,67,0.00,,---,0.00,VWS V14.01,2013-02-09 14:07:00,
2013-02-09 09:09:00,26.3,16.9,30.00,WSW,258,10.0,16.0,67,0.00,,---,0.00,VWS V14.01,2013-02-09 14:09:00,
2013-02-09 09:15:00,26.4,16.9,30.00,WSW,252,9.0,16.0,67,0.00,,---,0.00,VWS V14.01,2013-02-09 14:15:00,
2013-02-09 09:17:00,26.6,17.1,30.00,WNW,290,5.0,10.0,67,0.00,,---,0.00,VWS V14.01,2013-02-09 14:17:00,
2013-02-09 09:21:00,26.6,16.8,30.00,West,276,7.0,13.0,66,0.00,,---,0.00,VWS V14.01,2013-02-09 14:21:00,
2013-02-09 09:23:00,26.6,16.8,30.00,NW,321,5.0,16.0,66,0.00,,---,0.00,VWS V14.01,2013-02-09 14:23:00,
2013-02-09 09:25:00,26.6,16.8,30.01,WNW,284,5.0,16.0,66,0.00,,---,0.00,VWS V14.01,2013-02-09 14:25:00,
2013-02-09 09:27:00,26.6,16.4,30.01,WNW,296,4.0,16.0,65,0.00,,---,0.00,VWS V14.01,2013-02-09 14:27:00,
2013-02-09 09:30:00,26.6,16.4,30.01,West,267,3.0,16.0,65,0.00,,---,0.00,VWS V14.01,2013-02-09 14:30:00,
2013-02-09 09:33:00,26.6,16.1,30.02,West,264,12.0,14.0,64,0.00,,---,0.00,VWS V14.01,2013-02-09 14:33:00,
2013-02-09 09:35:00,26.6,16.1,30.02,West,263,7.0,19.0,64,0.00,,---,0.00,VWS V14.01,2013-02-09 14:35:00,
2013-02-09 09:39:00,26.4,16.2,30.02,NW,318,7.0,19.0,65,0.00,,---,0.00,VWS V14.01,2013-02-09 14:39:00,
2013-02-09 09:41:00,26.4,16.2,30.02,WNW,286,18.0,19.0,65,0.00,,---,0.00,VWS V14.01,2013-02-09 14:41:00,
2013-02-09 09:43:00,26.4,16.2,30.02,North,355,3.0,19.0,65,0.00,,---,0.00,VWS V14.01,2013-02-09 14:43:00,
2013-02-09 09:45:00,26.6,16.4,30.02,WSW,242,4.0,19.0,65,0.00,,---,0.00,VWS V14.01,2013-02-09 14:45:00,
2013-02-09 09:47:00,26.7,16.2,30.03,NW,321,7.0,11.0,64,0.00,,---,0.00,VWS V14.01,2013-02-09 14:47:00,
2013-02-09 09:51:00,26.9,16.4,30.03,WNW,292,7.0,15.0,64,0.00,,---,0.00,VWS V14.01,2013-02-09 14:51:00,
2013-02-09 09:53:00,26.9,16.0,30.03,NNE,17,3.0,15.0,63,0.00,,---,0.00,VWS V14.01,2013-02-09 14:53:00,
2013-02-09 09:57:00,26.9,15.6,30.03,WNW,294,12.0,17.0,62,0.00,,---,0.00,VWS V14.01,2013-02-09 14:57:00,
2013-02-09 10:01:00,27.0,16.1,30.04,WNW,292,14.0,15.0,63,0.00,,---,0.00,VWS V14.01,2013-02-09 15:01:00,
2013-02-09 10:05:00,27.2,15.9,30.03,WNW,299,13.0,21.0,62,0.00,,---,0.00,VWS V14.01,2013-02-09 15:05:00,
2013-02-09 10:09:00,27.3,16.0,30.04,SW,230,10.0,21.0,62,0.00,,---,0.00,VWS V14.01,2013-02-09 15:09:00,
2013-02-09 10:11:00,27.5,16.2,30.04,West,276,14.0,21.0,62,0.00,,---,0.00,VWS V14.01,2013-02-09 15:11:00,
2013-02-09 10:15:00,27.8,16.5,30.03,NW,306,1.0,21.0,62,0.00,,---,0.00,VWS V14.01,2013-02-09 15:15:00,
2013-02-09 10:17:00,27.8,16.1,30.04,WNW,290,6.0,16.0,61,0.00,,---,0.00,VWS V14.01,2013-02-09 15:17:00,
2013-02-09 10:21:00,27.8,16.1,30.04,West,281,4.0,16.0,61,0.00,,---,0.00,VWS V14.01,2013-02-09 15:21:00,
2013-02-09 10:23:00,27.9,15.8,30.04,WSW,252,13.0,19.0,60,0.00,,---,0.00,VWS V14.01,2013-02-09 15:23:00,
2013-02-09 10:25:00,27.9,15.8,30.04,SW,227,4.0,19.0,60,0.00,,---,0.00,VWS V14.01,2013-02-09 15:25:00,
2013-02-09 10:29:00,27.9,15.8,30.04,NW,325,12.0,19.0,60,0.00,,---,0.00,VWS V14.01,2013-02-09 15:29:00,
2013-02-09 10:30:00,27.9,15.8,30.04,ESE,111,4.0,19.0,60,0.00,,---,0.00,VWS V14.01,2013-02-09 15:30:00,
2013-02-09 10:31:00,27.9,16.2,30.04,North,360,2.0,9.0,61,0.00,,---,0.00,VWS V14.01,2013-02-09 15:31:00,
2013-02-09 10:37:00,27.8,15.4,30.04,WNW,293,10.0,20.0,59,0.00,,---,0.00,VWS V14.01,2013-02-09 15:37:00,
2013-02-09 10:39:00,27.8,15.7,30.05,WSW,246,14.0,21.0,60,0.00,,---,0.00,VWS V14.01,2013-02-09 15:39:00,
2013-02-09 10:41:00,27.8,15.4,30.04,WNW,302,14.0,21.0,59,0.00,,---,0.00,VWS V14.01,2013-02-09 15:41:00,
2013-02-09 10:45:00,27.6,15.6,30.04,West,267,5.0,21.0,60,0.00,,---,0.00,VWS V14.01,2013-02-09 15:45:00,
2013-02-09 10:51:00,27.6,15.2,30.05,WNW,294,4.0,20.0,59,0.00,,---,0.00,VWS V14.01,2013-02-09 15:51:00,
2013-02-09 10:55:00,27.9,15.4,30.05,West,266,7.0,22.0,59,0.00,,---,0.00,VWS V14.01,2013-02-09 15:55:00,
2013-02-09 10:57:00,27.9,15.1,30.05,WNW,297,14.0,22.0,58,0.00,,---,0.00,VWS V14.01,2013-02-09 15:57:00,
2013-02-09 11:00:00,27.9,15.4,30.05,West,259,18.0,22.0,59,0.00,,---,0.00,VWS V14.01,2013-02-09 16:00:00,
2013-02-09 11:03:00,28.1,15.6,30.05,WNW,284,17.0,18.0,59,0.00,,---,0.00,VWS V14.01,2013-02-09 16:03:00,
2013-02-09 11:07:00,28.4,15.5,30.05,WNW,292,16.0,18.0,58,0.00,,---,0.00,VWS V14.01,2013-02-09 16:07:00,
2013-02-09 11:09:00,28.4,15.5,30.05,NW,307,6.0,18.0,58,0.00,,---,0.00,VWS V14.01,2013-02-09 16:09:00,
2013-02-09 11:13:00,28.5,15.2,30.05,WNW,294,11.0,18.0,57,0.00,,---,0.00,VWS V14.01,2013-02-09 16:13:00,
2013-02-09 11:15:00,28.5,15.2,30.05,North,350,10.0,18.0,57,0.00,,---,0.00,VWS V14.01,2013-02-09 16:15:00,
2013-02-09 11:21:00,28.8,15.1,30.06,NW,325,10.0,17.0,56,0.00,,---,0.00,VWS V14.01,2013-02-09 16:21:00,
2013-02-09 11:23:00,28.8,15.1,30.06,NNW,330,18.0,20.0,56,0.00,,---,0.00,VWS V14.01,2013-02-09 16:23:00,
2013-02-09 11:25:00,29.0,15.3,30.06,North,5,5.0,20.0,56,0.00,,---,0.00,VWS V14.01,2013-02-09 16:25:00,
2013-02-09 11:27:00,29.1,15.4,30.06,NNW,335,5.0,20.0,56,0.00,,---,0.00,VWS V14.01,2013-02-09 16:27:00,
2013-02-09 11:29:00,29.3,15.6,30.06,NW,304,15.0,20.0,56,0.00,,---,0.00,VWS V14.01,2013-02-09 16:29:00,
2013-02-09 11:30:00,29.4,15.7,30.07,WNW,302,15.0,20.0,56,0.00,,---,0.00,VWS V14.01,2013-02-09 16:30:00,
2013-02-09 11:35:00,29.7,15.1,30.06,NW,323,6.0,15.0,54,0.00,,---,0.00,VWS V14.01,2013-02-09 16:35:00,
2013-02-09 11:37:00,29.8,15.6,30.07,NW,321,5.0,19.0,55,0.00,,---,0.00,VWS V14.01,2013-02-09 16:37:00,
2013-02-09 11:39:00,30.0,15.8,30.06,WNW,294,5.0,19.0,55,0.00,,---,0.00,VWS V14.01,2013-02-09 16:39:00,
2013-02-09 11:43:00,30.1,15.5,30.06,NW,313,9.0,19.0,54,0.00,,---,0.00,VWS V14.01,2013-02-09 16:43:00,
2013-02-09 11:45:00,30.0,15.0,30.06,NW,325,7.0,19.0,53,0.00,,---,0.00,VWS V14.01,2013-02-09 16:45:00,
2013-02-09 11:49:00,29.8,14.8,30.06,NNW,327,9.0,17.0,53,0.00,,---,0.00,VWS V14.01,2013-02-09 16:49:00,
2013-02-09 11:51:00,30.0,15.4,30.05,SE,136,4.0,17.0,54,0.01,,---,0.01,VWS V14.01,2013-02-09 16:51:00,
2013-02-09 11:53:00,30.1,15.1,30.05,NW,321,11.0,17.0,53,0.01,,---,0.01,VWS V14.01,2013-02-09 16:53:00,
2013-02-09 11:55:00,30.3,15.7,30.06,WNW,286,7.0,18.0,54,0.01,,---,0.01,VWS V14.01,2013-02-09 16:55:00,
2013-02-09 12:00:00,30.4,14.9,30.06,NNW,331,15.0,18.0,52,0.01,,---,0.01,VWS V14.01,2013-02-09 17:00:00,
2013-02-09 12:01:00,30.4,15.3,30.06,NW,313,13.0,15.0,53,0.01,,---,0.01,VWS V14.01,2013-02-09 17:01:00,
2013-02-09 12:07:00,30.4,14.4,30.07,North,360,10.0,20.0,51,0.02,,---,0.02,VWS V14.01,2013-02-09 17:07:00,
2013-02-09 12:09:00,30.4,14.4,30.08,WNW,288,11.0,20.0,51,0.02,,---,0.02,VWS V14.01,2013-02-09 17:09:00,
2013-02-09 12:13:00,30.4,14.9,30.08,NW,304,5.0,20.0,52,0.02,,---,0.02,VWS V14.01,2013-02-09 17:13:00,
2013-02-09 12:15:00,30.4,14.9,30.08,West,281,7.0,20.0,52,0.02,,---,0.02,VWS V14.01,2013-02-09 17:15:00,
2013-02-09 12:17:00,30.6,14.6,30.08,WSW,258,20.0,20.0,51,0.03,,---,0.03,VWS V14.01,2013-02-09 17:17:00,
2013-02-09 12:19:00,30.4,14.9,30.08,NW,320,10.0,20.0,52,0.03,,---,0.03,VWS V14.01,2013-02-09 17:19:00,
2013-02-09 12:21:00,30.4,14.9,30.08,NNE,21,10.0,20.0,52,0.03,,---,0.03,VWS V14.01,2013-02-09 17:21:00,
2013-02-09 12:27:00,30.9,15.4,30.07,WNW,284,14.0,20.0,52,0.04,,---,0.04,VWS V14.01,2013-02-09 17:27:00,
2013-02-09 12:29:00,30.9,14.5,30.07,WSW,254,12.0,21.0,50,0.04,,---,0.04,VWS V14.01,2013-02-09 17:29:00,
2013-02-09 12:31:00,30.7,14.7,30.07,West,271,16.0,16.0,51,0.04,,---,0.04,VWS V14.01,2013-02-09 17:31:00,
2013-02-09 12:35:00,30.9,14.5,30.07,West,280,14.0,17.0,50,0.04,,---,0.04,VWS V14.01,2013-02-09 17:35:00,
2013-02-09 12:39:00,30.6,14.6,30.08,West,281,11.0,19.0,51,0.04,,---,0.04,VWS V14.01,2013-02-09 17:39:00,
2013-02-09 12:41:00,30.6,14.6,30.08,WSW,253,12.0,19.0,51,0.04,,---,0.04,VWS V14.01,2013-02-09 17:41:00,
2013-02-09 12:45:00,30.9,14.0,30.09,NNW,330,10.0,22.0,49,0.04,,---,0.04,VWS V14.01,2013-02-09 17:45:00,
2013-02-09 12:47:00,30.9,14.0,30.09,WNW,291,6.0,16.0,49,0.04,,---,0.04,VWS V14.01,2013-02-09 17:47:00,
2013-02-09 12:51:00,31.2,14.3,30.09,WNW,301,9.0,16.0,49,0.04,,---,0.04,VWS V14.01,2013-02-09 17:51:00,
2013-02-09 12:53:00,31.3,14.8,30.09,NNW,345,16.0,16.0,50,0.04,,---,0.04,VWS V14.01,2013-02-09 17:53:00,
2013-02-09 12:57:00,31.3,14.4,30.10,West,277,11.0,17.0,49,0.05,,---,0.05,VWS V14.01,2013-02-09 17:57:00,
2013-02-09 13:00:00,31.3,12.9,30.10,NNW,340,2.0,17.0,46,0.05,,---,0.05,VWS V14.01,2013-02-09 18:00:00,
2013-02-09 13:06:00,31.3,13.9,30.10,West,271,11.0,19.0,48,0.04,,---,0.05,VWS V14.01,2013-02-09 18:06:00,
2013-02-09 13:08:00,31.3,14.4,30.10,NNE,30,4.0,19.0,49,0.04,,---,0.05,VWS V14.01,2013-02-09 18:08:00,
2013-02-09 13:12:00,31.6,14.2,30.10,WNW,286,10.0,19.0,48,0.04,,---,0.05,VWS V14.01,2013-02-09 18:12:00,
2013-02-09 13:14:00,31.8,14.4,30.10,WNW,290,3.0,19.0,48,0.04,,---,0.05,VWS V14.01,2013-02-09 18:14:00,
2013-02-09 13:16:00,31.8,13.4,30.10,WSW,249,16.0,16.0,46,0.03,,---,0.05,VWS V14.01,2013-02-09 18:16:00,
2013-02-09 13:18:00,31.8,14.4,30.10,WSW,247,9.0,16.0,48,0.03,,---,0.05,VWS V14.01,2013-02-09 18:18:00,
2013-02-09 13:22:00,31.9,14.0,30.10,WNW,296,10.0,16.0,47,0.03,,---,0.05,VWS V14.01,2013-02-09 18:22:00,
2013-02-09 13:28:00,32.2,14.2,30.10,NNW,328,4.0,16.0,47,0.03,,---,0.05,VWS V14.01,2013-02-09 18:28:00,
2013-02-09 13:30:00,32.4,13.9,30.10,NW,305,10.0,16.0,46,0.03,,---,0.05,VWS V14.01,2013-02-09 18:30:00,
2013-02-09 13:32:00,32.2,13.8,30.10,West,269,10.0,13.0,46,0.01,,---,0.05,VWS V14.01,2013-02-09 18:32:00,
2013-02-09 13:36:00,32.4,13.9,30.10,NW,317,6.0,14.0,46,0.01,,---,0.05,VWS V14.01,2013-02-09 18:36:00,
2013-02-09 13:42:00,32.8,14.3,30.10,West,273,5.0,14.0,46,0.02,,---,0.06,VWS V14.01,2013-02-09 18:42:00,
2013-02-09 13:44:00,32.9,14.4,30.10,NNW,346,3.0,14.0,46,0.02,,---,0.06,VWS V14.01,2013-02-09 18:44:00,
2013-02-09 13:48:00,32.8,13.8,30.11,WNW,296,11.0,17.0,45,0.02,,---,0.06,VWS V14.01,2013-02-09 18:48:00,
2013-02-09 13:50:00,32.8,13.8,30.11,West,277,4.0,17.0,45,0.02,,---,0.06,VWS V14.01,2013-02-09 18:50:00,
2013-02-09 13:56:00,32.7,14.2,30.11,WNW,289,10.0,17.0,46,0.03,,---,0.07,VWS V14.01,2013-02-09 18:56:00,
2013-02-09 13:58:00,32.8,13.3,30.11,WNW,296,13.0,17.0,44,0.03,,---,0.07,VWS V14.01,2013-02-09 18:58:00,
2013-02-09 14:00:00,32.8,12.8,30.11,WNW,286,4.0,19.0,43,0.03,,---,0.07,VWS V14.01,2013-02-09 19:00:00,
2013-02-09 14:06:00,32.9,12.3,30.11,West,271,8.0,13.0,42,0.02,,---,0.07,VWS V14.01,2013-02-09 19:06:00,
2013-02-09 14:08:00,33.1,13.1,30.11,WNW,293,11.0,13.0,43,0.02,,---,0.07,VWS V14.01,2013-02-09 19:08:00,
2013-02-09 14:10:00,33.2,13.1,30.11,West,259,14.0,16.0,43,0.02,,---,0.07,VWS V14.01,2013-02-09 19:10:00,
2013-02-09 14:15:00,33.1,14.1,30.11,West,277,13.0,16.0,45,0.02,,---,0.07,VWS V14.01,2013-02-09 19:15:00,
2013-02-09 14:16:00,33.1,14.1,30.11,West,267,23.0,23.0,45,0.02,,---,0.07,VWS V14.01,2013-02-09 19:16:00,
2013-02-09 14:18:00,32.9,12.3,30.11,North,355,5.0,23.0,42,0.03,,---,0.08,VWS V14.01,2013-02-09 19:18:00,
2013-02-09 14:22:00,33.1,12.5,30.11,North,355,6.0,23.0,42,0.03,,---,0.08,VWS V14.01,2013-02-09 19:22:00,
2013-02-09 14:28:00,33.2,12.1,30.11,North,5,9.0,23.0,41,0.03,,---,0.08,VWS V14.01,2013-02-09 19:28:00,
2013-02-09 14:30:00,33.4,12.8,30.11,WNW,302,5.0,23.0,42,0.03,,---,0.08,VWS V14.01,2013-02-09 19:30:00,
2013-02-09 14:32:00,33.5,12.9,30.11,WSW,238,4.0,6.0,42,0.03,,---,0.08,VWS V14.01,2013-02-09 19:32:00,
2013-02-09 14:38:00,33.4,12.2,30.11,WSW,250,6.0,18.0,41,0.03,,---,0.08,VWS V14.01,2013-02-09 19:38:00,
2013-02-09 14:40:00,33.4,12.8,30.12,NW,311,4.0,18.0,42,0.04,,---,0.09,VWS V14.01,2013-02-09 19:40:00,
2013-02-09 14:45:00,34.0,13.9,30.11,NW,324,7.0,18.0,43,0.04,,---,0.09,VWS V14.01,2013-02-09 19:45:00,
2013-02-09 14:48:00,34.0,12.8,30.12,NW,314,3.0,12.0,41,0.03,,---,0.09,VWS V14.01,2013-02-09 19:48:00,
2013-02-09 14:52:00,33.8,13.1,30.12,NNE,30,3.0,12.0,42,0.03,,---,0.09,VWS V14.01,2013-02-09 19:52:00,
2013-02-09 14:54:00,33.8,13.1,30.12,WNW,283,5.0,12.0,42,0.03,,---,0.09,VWS V14.01,2013-02-09 19:54:00,
2013-02-09 14:58:00,33.7,12.0,30.12,WSW,255,6.0,15.0,40,0.03,,---,0.09,VWS V14.01,2013-02-09 19:58:00,
2013-02-09 15:00:00,33.7,12.5,30.13,WNW,290,3.0,15.0,41,0.03,,---,0.09,VWS V14.01,2013-02-09 20:00:00,
2013-02-09 15:04:00,33.5,12.9,30.13,West,272,10.0,16.0,42,0.02,,---,0.09,VWS V14.01,2013-02-09 20:04:00,
2013-02-09 15:06:00,33.4,12.8,30.13,WNW,288,8.0,16.0,42,0.02,,---,0.09,VWS V14.01,2013-02-09 20:06:00,
2013-02-09 15:08:00,33.1,12.5,30.13,WSW,251,8.0,16.0,42,0.02,,---,0.09,VWS V14.01,2013-02-09 20:08:00,
2013-02-09 15:12:00,32.9,12.3,30.13,WSW,257,5.0,17.0,42,0.02,,---,0.09,VWS V14.01,2013-02-09 20:12:00,
2013-02-09 15:18:00,33.1,13.1,30.14,NW,310,5.0,12.0,43,0.02,,---,0.09,VWS V14.01,2013-02-09 20:18:00,
2013-02-09 15:20:00,33.1,12.5,30.14,WNW,298,5.0,14.0,42,0.03,,---,0.10,VWS V14.01,2013-02-09 20:20:00,
2013-02-09 15:26:00,33.2,12.1,30.14,WNW,298,5.0,14.0,41,0.03,,---,0.10,VWS V14.01,2013-02-09 20:26:00,
2013-02-09 15:28:00,33.2,12.6,30.14,West,278,7.0,14.0,42,0.03,,---,0.10,VWS V14.01,2013-02-09 20:28:00,
2013-02-09 15:30:00,33.1,12.5,30.14,NW,307,5.0,14.0,42,0.03,,---,0.10,VWS V14.01,2013-02-09 20:30:00,
2013-02-09 15:36:00,32.8,12.2,30.14,WNW,299,6.0,14.0,42,0.02,,---,0.10,VWS V14.01,2013-02-09 20:36:00,
2013-02-09 15:38:00,32.9,12.3,30.14,NW,308,5.0,15.0,42,0.02,,---,0.10,VWS V14.01,2013-02-09 20:38:00,
2013-02-09 15:40:00,32.9,12.3,30.14,West,269,5.0,15.0,42,0.02,,---,0.10,VWS V14.01,2013-02-09 20:40:00,
2013-02-09 15:44:00,32.8,11.7,30.14,West,280,8.0,15.0,41,0.02,,---,0.10,VWS V14.01,2013-02-09 20:44:00,
2013-02-09 15:45:00,32.8,11.7,30.14,WNW,296,6.0,15.0,41,0.02,,---,0.10,VWS V14.01,2013-02-09 20:45:00,
2013-02-09 15:46:00,32.8,11.7,30.14,WNW,286,9.0,11.0,41,0.01,,---,0.10,VWS V14.01,2013-02-09 20:46:00,
2013-02-09 15:48:00,32.8,12.2,30.14,WNW,285,7.0,11.0,42,0.01,,---,0.10,VWS V14.01,2013-02-09 20:48:00,
2013-02-09 15:50:00,32.7,11.6,30.14,West,270,6.0,11.0,41,0.01,,---,0.10,VWS V14.01,2013-02-09 20:50:00,
2013-02-09 15:54:00,32.5,11.4,30.15,West,265,9.0,13.0,41,0.01,,---,0.10,VWS V14.01,2013-02-09 20:54:00,
2013-02-09 15:58:00,32.4,10.8,30.15,West,281,9.0,18.0,40,0.01,,---,0.10,VWS V14.01,2013-02-09 20:58:00,
2013-02-09 16:00:00,32.2,10.6,30.15,WNW,284,5.0,18.0,40,0.01,,---,0.10,VWS V14.01,2013-02-09 21:00:00,
2013-02-09 16:04:00,32.2,10.6,30.15,West,271,5.0,18.0,40,0.01,,---,0.10,VWS V14.01,2013-02-09 21:04:00,
2013-02-09 16:06:00,32.1,10.5,30.15,NW,313,8.0,18.0,40,0.01,,---,0.10,VWS V14.01,2013-02-09 21:06:00,
2013-02-09 16:10:00,32.1,10.5,30.15,WSW,250,14.0,18.0,40,0.01,,---,0.10,VWS V14.01,2013-02-09 21:10:00,
2013-02-09 16:12:00,31.9,10.3,30.15,NW,317,12.0,18.0,40,0.01,,---,0.10,VWS V14.01,2013-02-09 21:12:00,
2013-02-09 16:15:00,31.9,10.9,30.16,West,281,4.0,18.0,41,0.01,,---,0.10,VWS V14.01,2013-02-09 21:15:00,
2013-02-09 16:20:00,32.1,9.9,30.16,WNW,288,6.0,13.0,39,0.01,,---,0.10,VWS V14.01,2013-02-09 21:20:00,
2013-02-09 16:22:00,32.1,9.9,30.16,West,281,6.0,13.0,39,0.01,,---,0.10,VWS V14.01,2013-02-09 21:22:00,
2013-02-09 16:24:00,31.9,9.8,30.16,NNW,338,7.0,15.0,39,0.02,,---,0.11,VWS V14.01,2013-02-09 21:24:00,
2013-02-09 16:26:00,31.9,10.3,30.16,West,273,7.0,15.0,40,0.02,,---,0.11,VWS V14.01,2013-02-09 21:26:00,
2013-02-09 16:30:00,31.8,10.2,30.16,West,264,11.0,15.0,40,0.02,,---,0.11,VWS V14.01,2013-02-09 21:30:00,
2013-02-09 16:32:00,31.8,10.2,30.16,West,265,6.0,13.0,40,0.01,,---,0.11,VWS V14.01,2013-02-09 21:32:00,
2013-02-09 16:38:00,31.2,10.8,30.16,WNW,302,6.0,16.0,42,0.01,,---,0.11,VWS V14.01,2013-02-09 21:38:00,
2013-02-09 16:40:00,31.0,10.6,30.16,WNW,282,9.0,16.0,42,0.01,,---,0.11,VWS V14.01,2013-02-09 21:40:00,
2013-02-09 16:42:00,31.0,10.1,30.16,West,276,9.0,16.0,41,0.01,,---,0.11,VWS V14.01,2013-02-09 21:42:00,
2013-02-09 16:45:00,30.9,10.5,30.16,WNW,290,10.0,17.0,42,0.01,,---,0.11,VWS V14.01,2013-02-09 21:45:00,
2013-02-09 16:46:00,30.9,10.5,30.16,WNW,282,5.0,10.0,42,0.01,,---,0.11,VWS V14.01,2013-02-09 21:46:00,
2013-02-09 16:48:00,30.7,9.8,30.16,NW,304,10.0,14.0,41,0.01,,---,0.11,VWS V14.01,2013-02-09 21:48:00,
2013-02-09 16:54:00,30.4,10.1,30.17,WSW,245,4.0,16.0,42,0.01,,---,0.11,VWS V14.01,2013-02-09 21:54:00,
2013-02-09 16:58:00,30.3,10.5,30.17,West,273,11.0,16.0,43,0.01,,---,0.11,VWS V14.01,2013-02-09 21:58:00,
2013-02-09 17:00:00,30.1,9.8,30.17,West,267,9.0,16.0,42,0.01,,---,0.11,VWS V14.01,2013-02-09 22:00:00,
2013-02-09 17:02:00,30.0,9.7,30.17,NW,305,15.0,15.0,42,0.01,,---,0.11,VWS V14.01,2013-02-09 22:02:00,
2013-02-09 17:06:00,29.8,9.5,30.18,NNW,342,11.0,15.0,42,0.01,,---,0.11,VWS V14.01,2013-02-09 22:06:00,
2013-02-09 17:08:00,29.7,10.0,30.18,WSW,244,12.0,16.0,43,0.01,,---,0.11,VWS V14.01,2013-02-09 22:08:00,
2013-02-09 17:10:00,29.5,9.2,30.18,West,267,11.0,16.0,42,0.01,,---,0.11,VWS V14.01,2013-02-09 22:10:00,
2013-02-09 17:15:00,29.1,9.4,30.18,NNE,22,9.0,17.0,43,0.01,,---,0.11,VWS V14.01,2013-02-09 22:15:00,
2013-02-09 17:16:00,29.1,8.9,30.18,NW,315,5.0,11.0,42,0.01,,---,0.11,VWS V14.01,2013-02-09 22:16:00,
2013-02-09 17:20:00,29.0,9.3,30.19,WNW,290,6.0,15.0,43,0.01,,---,0.11,VWS V14.01,2013-02-09 22:20:00,
2013-02-09 17:26:00,28.7,9.6,30.19,West,269,6.0,15.0,44,0.01,,---,0.11,VWS V14.01,2013-02-09 22:26:00,
2013-02-09 17:28:00,28.5,8.9,30.19,WNW,300,13.0,15.0,43,0.01,,---,0.11,VWS V14.01,2013-02-09 22:28:00,
2013-02-09 17:30:00,28.4,8.8,30.19,North,5,8.0,15.0,43,0.01,,---,0.11,VWS V14.01,2013-02-09 22:30:00,
2013-02-09 17:35:00,28.4,8.8,30.19,WNW,290,6.0,17.0,43,0.00,,---,0.11,VWS V14.01,2013-02-09 22:35:00,
2013-02-09 17:37:00,28.2,9.1,30.20,NW,318,10.0,17.0,44,0.00,,---,0.11,VWS V14.01,2013-02-09 22:37:00,
2013-02-09 17:41:00,28.2,8.6,30.20,WSW,257,7.0,17.0,43,0.00,,---,0.11,VWS V14.01,2013-02-09 22:41:00,
2013-02-09 17:43:00,28.1,8.5,30.20,WNW,300,2.0,17.0,43,0.00,,---,0.11,VWS V14.01,2013-02-09 22:43:00,
2013-02-09 17:45:00,28.1,9.0,30.20,NW,317,3.0,17.0,44,0.00,,---,0.11,VWS V14.01,2013-02-09 22:45:00,
2013-02-09 17:51:00,27.9,8.3,30.21,WSW,238,3.0,13.0,43,0.00,,---,0.11,VWS V14.01,2013-02-09 22:51:00,
2013-02-09 17:53:00,27.9,8.3,30.21,WNW,298,14.0,14.0,43,0.00,,---,0.11,VWS V14.01,2013-02-09 22:53:00,
2013-02-09 17:59:00,27.6,8.6,30.21,NW,309,11.0,14.0,44,0.00,,---,0.11,VWS V14.01,2013-02-09 22:59:00,
2013-02-09 18:01:00,27.5,8.5,30.21,NNW,340,9.0,10.0,44,0.00,,---,0.11,VWS V14.01,2013-02-09 23:01:00,
2013-02-09 18:05:00,27.3,8.3,30.21,West,260,7.0,13.0,44,0.00,,---,0.11,VWS V14.01,2013-02-09 23:05:00,
2013-02-09 18:07:00,27.3,8.3,30.21,NNW,334,11.0,13.0,44,0.00,,---,0.11,VWS V14.01,2013-02-09 23:07:00,
2013-02-09 18:09:00,27.2,8.2,30.22,WNW,299,10.0,13.0,44,0.00,,---,0.11,VWS V14.01,2013-02-09 23:09:00,
2013-02-09 18:15:00,27.0,8.0,30.22,West,273,3.0,15.0,44,0.00,,---,0.11,VWS V14.01,2013-02-09 23:15:00,
2013-02-09 18:21:00,26.9,8.4,30.22,NW,317,10.0,12.0,45,0.00,,---,0.11,VWS V14.01,2013-02-09 23:21:00,
2013-02-09 18:23:00,26.9,7.9,30.22,WNW,292,6.0,16.0,44,0.00,,---,0.11,VWS V14.01,2013-02-09 23:23:00,
2013-02-09 18:25:00,26.9,7.9,30.22,WNW,297,6.0,16.0,44,0.00,,---,0.11,VWS V14.01,2013-02-09 23:25:00,
2013-02-09 18:30:00,26.7,7.7,30.22,West,281,5.0,16.0,44,0.00,,---,0.11,VWS V14.01,2013-02-09 23:30:00,
2013-02-09 18:31:00,26.7,7.7,30.22,NNW,342,3.0,10.0,44,0.00,,---,0.11,VWS V14.01,2013-02-09 23:31:00,
2013-02-09 18:33:00,26.6,8.1,30.22,NW,308,10.0,13.0,45,0.00,,---,0.11,VWS V14.01,2013-02-09 23:33:00,
2013-02-09 18:37:00,26.6,8.1,30.23,NNW,336,10.0,13.0,45,0.00,,---,0.11,VWS V14.01,2013-02-09 23:37:00,
2013-02-09 18:39:00,26.4,7.5,30.22,West,277,3.0,15.0,44,0.00,,---,0.11,VWS V14.01,2013-02-09 23:39:00,
2013-02-09 18:41:00,26.4,7.9,30.22,NNW,337,6.0,15.0,45,0.00,,---,0.11,VWS V14.01,2013-02-09 23:41:00,
2013-02-09 18:45:00,26.3,7.9,30.22,West,261,6.0,15.0,45,0.00,,---,0.11,VWS V14.01,2013-02-09 23:45:00,
2013-02-09 18:51:00,26.0,8.1,30.22,WNW,302,7.0,15.0,46,0.00,,---,0.11,VWS V14.01,2013-02-09 23:51:00,
2013-02-09 18:53:00,25.8,7.9,30.22,West,281,5.0,15.0,46,0.00,,---,0.11,VWS V14.01,2013-02-09 23:53:00,
2013-02-09 18:57:00,25.8,7.4,30.22,WNW,290,3.0,15.0,45,0.00,,---,0.11,VWS V14.01,2013-02-09 23:57:00,
2013-02-09 18:59:00,25.8,7.4,30.23,WNW,298,4.0,15.0,45,0.00,,---,0.11,VWS V14.01,2013-02-09 23:59:00,
2013-02-09 19:00:00,25.8,7.9,30.23,WNW,294,6.0,15.0,46,0.00,,---,0.11,VWS V14.01,2013-02-10 00:00:00,
2013-02-09 19:05:00,25.7,7.3,30.23,WNW,290,3.0,7.0,45,0.00,,---,0.11,VWS V14.01,2013-02-10 00:05:00,
2013-02-09 19:07:00,25.6,7.2,30.23,NNW,347,5.0,14.0,45,0.00,,---,0.11,VWS V14.01,2013-02-10 00:07:00,
2013-02-09 19:11:00,25.6,7.2,30.23,WNW,296,13.0,15.0,45,0.00,,---,0.11,VWS V14.01,2013-02-10 00:11:00,
2013-02-09 19:15:00,25.6,6.7,30.24,NW,324,4.0,15.0,44,0.00,,---,0.11,VWS V14.01,2013-02-10 00:15:00,
2013-02-09 19:21:00,25.4,7.0,30.24,SW,234,5.0,11.0,45,0.00,,---,0.11,VWS V14.01,2013-02-10 00:21:00,
2013-02-09 19:23:00,25.4,6.5,30.24,WNW,294,10.0,12.0,44,0.00,,---,0.11,VWS V14.01,2013-02-10 00:23:00,
2013-02-09 19:25:00,25.4,6.5,30.24,WSW,257,5.0,12.0,44,0.00,,---,0.11,VWS V14.01,2013-02-10 00:25:00,
2013-02-09 19:27:00,25.3,6.4,30.24,West,270,9.0,13.0,44,0.00,,---,0.11,VWS V14.01,2013-02-10 00:27:00,
2013-02-09 19:30:00,25.1,6.8,30.25,West,265,1.0,13.0,45,0.00,,---,0.11,VWS V14.01,2013-02-10 00:30:00,
2013-02-09 19:31:00,25.1,6.8,30.25,NW,308,2.0,3.0,45,0.00,,---,0.11,VWS V14.01,2013-02-10 00:31:00,
2013-02-09 19:33:00,25.1,6.8,30.25,WSW,237,2.0,9.0,45,0.00,,---,0.11,VWS V14.01,2013-02-10 00:33:00,
2013-02-09 19:37:00,25.0,6.7,30.25,WSW,251,1.0,11.0,45,0.00,,---,0.11,VWS V14.01,2013-02-10 00:37:00,
2013-02-09 19:39:00,24.8,6.5,30.25,NW,304,0.0,11.0,45,0.00,,---,0.11,VWS V14.01,2013-02-10 00:39:00,
2013-02-09 19:41:00,24.8,7.0,30.25,WSW,250,3.0,11.0,46,0.00,,---,0.11,VWS V14.01,2013-02-10 00:41:00,
2013-02-09 19:43:00,24.7,6.9,30.26,WSW,257,4.0,11.0,46,0.00,,---,0.11,VWS V14.01,2013-02-10 00:43:00,
2013-02-09 19:45:00,24.7,6.9,30.26,WNW,289,4.0,11.0,46,0.00,,---,0.11,VWS V14.01,2013-02-10 00:45:00,
2013-02-09 19:47:00,24.7,6.9,30.26,West,280,0.0,13.0,46,0.00,,---,0.11,VWS V14.01,2013-02-10 00:47:00,
2013-02-09 19:51:00,24.5,6.7,30.26,WNW,292,11.0,13.0,46,0.00,,---,0.11,VWS V14.01,2013-02-10 00:51:00,
2013-02-09 19:55:00,24.5,6.2,30.27,West,275,1.0,14.0,45,0.00,,---,0.11,VWS V14.01,2013-02-10 00:55:00,
2013-02-09 19:59:00,24.4,6.6,30.27,North,360,0.0,14.0,46,0.00,,---,0.11,VWS V14.01,2013-02-10 00:59:00,
2013-02-09 20:00:00,24.4,6.6,30.27,WNW,292,0.0,14.0,46,0.00,,---,0.11,VWS V14.01,2013-02-10 01:00:00,
2013-02-09 20:07:00,24.2,6.4,30.28,WSW,258,8.0,13.0,46,0.00,,---,0.11,VWS V14.01,2013-02-10 01:07:00,
2013-02-09 20:13:00,24.2,6.4,30.28,SSW,196,6.0,13.0,46,0.00,,---,0.11,VWS V14.01,2013-02-10 01:13:00,
2013-02-09 20:15:00,24.2,5.9,30.29,SW,217,4.0,13.0,45,0.00,,---,0.11,VWS V14.01,2013-02-10 01:15:00,
2013-02-09 20:21:00,24.1,6.3,30.29,WNW,298,2.0,9.0,46,0.00,,---,0.11,VWS V14.01,2013-02-10 01:21:00,
2013-02-09 20:23:00,24.1,6.3,30.29,South,190,1.0,9.0,46,0.00,,---,0.11,VWS V14.01,2013-02-10 01:23:00,
2013-02-09 20:25:00,23.9,6.1,30.29,WSW,247,12.0,13.0,46,0.00,,---,0.11,VWS V14.01,2013-02-10 01:25:00,
2013-02-09 20:29:00,23.9,6.1,30.30,West,263,1.0,13.0,46,0.00,,---,0.11,VWS V14.01,2013-02-10 01:29:00,
2013-02-09 20:30:00,23.9,6.1,30.30,WSW,240,0.0,13.0,46,0.00,,---,0.11,VWS V14.01,2013-02-10 01:30:00,
2013-02-09 20:37:00,23.6,5.9,30.30,NNW,327,1.0,11.0,46,0.00,,---,0.11,VWS V14.01,2013-02-10 01:37:00,
2013-02-09 20:39:00,23.6,5.9,30.30,North,360,2.0,11.0,46,0.00,,---,0.11,VWS V14.01,2013-02-10 01:39:00,
2013-02-09 20:43:00,23.6,5.9,30.31,WNW,301,4.0,11.0,46,0.00,,---,0.11,VWS V14.01,2013-02-10 01:43:00,
2013-02-09 20:45:00,23.6,5.9,30.31,WNW,294,3.0,11.0,46,0.00,,---,0.11,VWS V14.01,2013-02-10 01:45:00,
2013-02-09 20:49:00,23.6,5.9,30.31,North,5,0.0,7.0,46,0.00,,---,0.11,VWS V14.01,2013-02-10 01:49:00,
2013-02-09 20:51:00,23.6,5.9,30.31,WSW,257,7.0,7.0,46,0.00,,---,0.11,VWS V14.01,2013-02-10 01:51:00,
2013-02-09 20:55:00,23.5,5.8,30.31,WSW,250,0.0,9.0,46,0.00,,---,0.11,VWS V14.01,2013-02-10 01:55:00,
2013-02-09 20:57:00,23.3,5.6,30.31,WNW,285,2.0,9.0,46,0.00,,---,0.11,VWS V14.01,2013-02-10 01:57:00,
2013-02-09 21:01:00,23.3,6.1,30.31,NNW,327,2.0,2.0,47,0.00,,---,0.11,VWS V14.01,2013-02-10 02:01:00,
2013-02-09 21:03:00,23.3,5.6,30.32,West,274,1.0,8.0,46,0.00,,---,0.11,VWS V14.01,2013-02-10 02:03:00,
2013-02-09 21:05:00,23.2,6.0,30.32,WSW,237,0.0,8.0,47,0.00,,---,0.11,VWS V14.01,2013-02-10 02:05:00,
2013-02-09 21:07:00,23.2,6.0,30.32,WSW,237,1.0,8.0,47,0.00,,---,0.11,VWS V14.01,2013-02-10 02:07:00,
2013-02-09 21:13:00,22.9,5.7,30.32,North,9,2.0,8.0,47,0.00,,---,0.11,VWS V14.01,2013-02-10 02:13:00,
2013-02-09 21:15:00,22.9,5.7,30.32,SW,236,0.0,8.0,47,0.00,,---,0.11,VWS V14.01,2013-02-10 02:15:00,
2013-02-09 21:19:00,22.7,5.5,30.32,NW,315,2.0,4.0,47,0.00,,---,0.11,VWS V14.01,2013-02-10 02:19:00,
2013-02-09 21:21:00,22.7,5.5,30.32,NNE,23,2.0,6.0,47,0.00,,---,0.11,VWS V14.01,2013-02-10 02:21:00,
2013-02-09 21:23:00,22.7,6.0,30.32,WSW,258,0.0,6.0,48,0.00,,---,0.11,VWS V14.01,2013-02-10 02:23:00,
2013-02-09 21:29:00,22.7,6.0,30.33,West,281,0.0,8.0,48,0.00,,---,0.11,VWS V14.01,2013-02-10 02:29:00,
2013-02-09 21:30:00,22.7,6.0,30.33,West,281,0.0,8.0,48,0.00,,---,0.11,VWS V14.01,2013-02-10 02:30:00,
2013-02-09 21:31:00,22.5,5.8,30.33,WNW,282,2.0,2.0,48,0.00,,---,0.11,VWS V14.01,2013-02-10 02:31:00,
2013-02-09 21:35:00,22.5,5.8,30.33,WNW,296,5.0,5.0,48,0.00,,---,0.11,VWS V14.01,2013-02-10 02:35:00,
2013-02-09 21:37:00,22.4,6.2,30.33,NNW,342,2.0,5.0,49,0.00,,---,0.11,VWS V14.01,2013-02-10 02:37:00,
2013-02-09 21:39:00,22.4,6.2,30.33,NNW,342,3.0,5.0,49,0.00,,---,0.11,VWS V14.01,2013-02-10 02:39:00,
2013-02-09 21:45:00,22.1,5.9,30.33,WNW,287,0.0,5.0,49,0.00,,---,0.11,VWS V14.01,2013-02-10 02:45:00,
2013-02-09 21:49:00,21.9,6.1,30.33,WNW,297,2.0,4.0,50,0.00,,---,0.11,VWS V14.01,2013-02-10 02:49:00,
2013-02-09 21:51:00,21.9,6.1,30.33,NW,306,4.0,4.0,50,0.00,,---,0.11,VWS V14.01,2013-02-10 02:51:00,
2013-02-09 21:53:00,21.8,6.0,30.33,West,275,2.0,5.0,50,0.00,,---,0.11,VWS V14.01,2013-02-10 02:53:00,
2013-02-09 21:59:00,21.8,6.0,30.33,WNW,297,3.0,8.0,50,0.00,,---,0.11,VWS V14.01,2013-02-10 02:59:00,
2013-02-09 22:00:00,21.8,6.0,30.33,West,279,3.0,8.0,50,0.00,,---,0.11,VWS V14.01,2013-02-10 03:00:00,
2013-02-09 22:05:00,21.8,6.0,30.33,WNW,295,1.0,6.0,50,0.00,,---,0.11,VWS V14.01,2013-02-10 03:05:00,
2013-02-09 22:09:00,21.6,6.3,30.33,WNW,290,3.0,6.0,51,0.00,,---,0.11,VWS V14.01,2013-02-10 03:09:00,
2013-02-09 22:15:00,21.4,6.1,30.33,North,355,1.0,6.0,51,0.00,,---,0.11,VWS V14.01,2013-02-10 03:15:00,
2013-02-09 22:20:00,21.4,6.1,30.33,NNW,342,1.0,3.0,51,0.00,,---,0.11,VWS V14.01,2013-02-10 03:20:00,
2013-02-09 22:24:00,21.3,6.0,30.34,West,277,0.0,6.0,51,0.00,,---,0.11,VWS V14.01,2013-02-10 03:24:00,
2013-02-09 22:26:00,21.3,5.6,30.34,NNE,32,0.0,6.0,50,0.00,,---,0.11,VWS V14.01,2013-02-10 03:26:00,
2013-02-09 22:30:00,21.3,5.6,30.34,NNW,342,0.0,6.0,50,0.00,,---,0.11,VWS V14.01,2013-02-10 03:30:00,
2013-02-09 22:34:00,21.3,5.6,30.34,West,277,0.0,4.0,50,0.00,,---,0.11,VWS V14.01,2013-02-10 03:34:00,
2013-02-09 22:36:00,21.3,5.6,30.34,WNW,298,1.0,4.0,50,0.00,,---,0.11,VWS V14.01,2013-02-10 03:36:00,
2013-02-09 22:38:00,21.1,5.4,30.34,WNW,298,0.0,4.0,50,0.00,,---,0.11,VWS V14.01,2013-02-10 03:38:00,
2013-02-09 22:40:00,21.1,5.4,30.34,NNE,32,0.0,12.0,50,0.00,,---,0.11,VWS V14.01,2013-02-10 03:40:00,
2013-02-09 22:44:00,21.1,5.4,30.34,WNW,298,0.0,12.0,50,0.00,,---,0.11,VWS V14.01,2013-02-10 03:44:00,
2013-02-09 22:45:00,21.1,5.4,30.34,WNW,298,0.0,12.0,50,0.00,,---,0.11,VWS V14.01,2013-02-10 03:45:00,
2013-02-09 22:50:00,21.1,5.4,30.34,WSW,247,2.0,2.0,50,0.00,,---,0.11,VWS V14.01,2013-02-10 03:50:00,
2013-02-09 22:56:00,21.1,5.4,30.35,West,275,1.0,6.0,50,0.00,,---,0.11,VWS V14.01,2013-02-10 03:56:00,
2013-02-09 22:58:00,21.1,4.9,30.35,West,275,0.0,6.0,49,0.00,,---,0.11,VWS V14.01,2013-02-10 03:58:00,
2013-02-09 23:00:00,21.0,4.8,30.35,West,275,0.0,6.0,49,0.00,,---,0.11,VWS V14.01,2013-02-10 04:00:00,
2013-02-09 23:02:00,21.0,5.3,30.35,North,350,0.0,2.0,50,0.00,,---,0.11,VWS V14.01,2013-02-10 04:02:00,
2013-02-09 23:06:00,20.8,5.1,30.35,NW,325,0.0,4.0,50,0.00,,---,0.11,VWS V14.01,2013-02-10 04:06:00,
2013-02-09 23:08:00,20.8,5.1,30.35,WNW,288,3.0,4.0,50,0.00,,---,0.11,VWS V14.01,2013-02-10 04:08:00,
2013-02-09 23:14:00,20.8,5.1,30.36,WSW,240,0.0,4.0,50,0.00,,---,0.11,VWS V14.01,2013-02-10 04:14:00,
2013-02-09 23:15:00,20.8,5.1,30.36,WSW,240,0.0,4.0,50,0.00,,---,0.11,VWS V14.01,2013-02-10 04:15:00,
2013-02-09 23:20:00,20.6,4.9,30.36,WNW,301,0.0,4.0,50,0.00,,---,0.11,VWS V14.01,2013-02-10 04:20:00,
2013-02-09 23:22:00,20.6,4.9,30.36,NW,305,0.0,4.0,50,0.00,,---,0.11,VWS V14.01,2013-02-10 04:22:00,
2013-02-09 23:26:00,20.5,5.3,30.36,NW,307,0.0,4.0,51,0.00,,---,0.11,VWS V14.01,2013-02-10 04:26:00,
2013-02-09 23:28:00,20.5,5.3,30.36,WSW,257,0.0,4.0,51,0.00,,---,0.11,VWS V14.01,2013-02-10 04:28:00,
2013-02-09 23:30:00,20.3,5.1,30.36,West,261,0.0,4.0,51,0.00,,---,0.11,VWS V14.01,2013-02-10 04:30:00,
2013-02-09 23:32:00,20.3,5.1,30.36,West,263,1.0,2.0,51,0.00,,---,0.11,VWS V14.01,2013-02-10 04:32:00,
2013-02-09 23:34:00,20.3,5.1,30.37,West,264,0.0,2.0,51,0.00,,---,0.11,VWS V14.01,2013-02-10 04:34:00,
2013-02-09 23:40:00,19.9,5.1,30.37,NNW,340,0.0,2.0,52,0.00,,---,0.11,VWS V14.01,2013-02-10 04:40:00,
2013-02-09 23:42:00,19.9,5.1,30.37,NNW,340,0.0,2.0,52,0.00,,---,0.11,VWS V14.01,2013-02-10 04:42:00,
2013-02-09 23:45:00,19.5,5.2,30.37,NNW,340,1.0,2.0,53,0.00,,---,0.11,VWS V14.01,2013-02-10 04:45:00,
2013-02-09 23:48:00,19.4,5.1,30.37,West,276,0.0,3.0,53,0.00,,---,0.11,VWS V14.01,2013-02-10 04:48:00,
2013-02-09 23:54:00,19.2,5.3,30.37,West,277,0.0,3.0,54,0.00,,---,0.11,VWS V14.01,2013-02-10 04:54:00,
2013-02-09 23:56:00,19.2,5.3,30.37,North,350,0.0,3.0,54,0.00,,---,0.11,VWS V14.01,2013-02-10 04:56:00,